Andrus Island, California
Current Conditions -  °F | °C
As of 2:58 AM on Saturday 25 Oct 2014 (Local Time) from KSUU Reporting Station
Clear Clear  
Wind Chill: 18°   Ceiling: Unl
Heat Index: 18°   Visibility: 10mi
Dew Point: 13°   Wind: 12mph
Humidity: 74%   Direction: 190°S
Pressure: 29.89"   Gusts: NA
Location:  38.1457°N, 121.624°W
Report Text: KSUU 250958Z AUTO 19010KT 10SM CLR 18/13 A2989 RMK AO2 SLP128 T01780131 $
Loading
Personal Weather Stations






























Interactive Weather Map New forecast layout! Learn more

10-Day Weather Forecast

Advertisements
Track Severe Weather on mobile